This is the latest recevied weather packets stored in our database for station/object KCXW. If no packets are shown the sender has not sent any weather packets the latest 10 day(s).
| Time | Temp. | Humidity | Pressure | Rain* | Wind** | Luminosity | Snow |
|---|---|---|---|---|---|---|---|
| 1777778614 | 11.67° C | 100% | 1019.6 hPa | - | - | - | - |
| 1777778015 | 12.78° C | 93% | 1019.3 hPa | - | - | - | - |
| 1777777409 | 12.78° C | 93% | 1019.3 hPa | - | - | - | - |
| 1777776812 | 13.89° C | 82% | 1019 hPa | - | - | - | - |
| 1777776210 | 13.89° C | 82% | 1019 hPa | - | - | - | - |
| 1777775612 | 15.56° C | 59% | 1018.6 hPa | - | - | - | - |
| 1777775009 | 15.56° C | 59% | 1018.6 hPa | - | - | - | - |
| 1777774412 | 15.56° C | 59% | 1018.6 hPa | - | - | - | - |
| 1777773813 | 15.56° C | 59% | 1018.6 hPa | - | - | - | - |
| 1777773213 | 15° C | 72% | 1018.3 hPa | - | - | - | - |
| 1777772616 | 15° C | 72% | 1018.3 hPa | - | - | - | - |
| 1777772013 | 18.89° C | 39% | 1017.6 hPa | - | - | - | - |
| 1777771409 | 18.89° C | 39% | 1017.6 hPa | - | - | - | - |
| 1777770809 | 18.89° C | 39% | 1017.6 hPa | - | - | - | - |
| 1777770210 | 18.89° C | 39% | 1017.6 hPa | - | - | - | - |
| 1777769609 | 20° C | 37% | 1017.6 hPa | - | - | - | - |
| 1777769012 | 20° C | 37% | 1017.6 hPa | - | - | - | - |
| 1777768411 | 20.56° C | 35% | 1017.3 hPa | - | - | - | - |
| 1777767931 | 20.56° C | 35% | 1017.3 hPa | - | - | - | - |
| 1777767207 | 21.67° C | 33% | 1017.3 hPa | - | - | - | - |
| 1777766612 | 21.67° C | 33% | 1017.3 hPa | - | - | - | - |
| 1777766009 | 21.67° C | 33% | 1017.3 hPa | - | - | - | - |
| 1777765412 | 21.67° C | 33% | 1017.3 hPa | - | - | - | - |
| 1777764813 | 22.78° C | 31% | 1017.3 hPa | - | - | - | - |
| 1777764214 | 22.78° C | 31% | 1017.3 hPa | - | - | - | - |
* Rain since midnight (hover to see other rain measurements)
** Current wind speed in m/s (hover to see current wind gust speed)